Time;durP1;ratioP1;P1;durP2;ratioP2;P2;SDS_P1;SDS_P2;PMS_P1;PMS_P2;Temp;Humidity;BMP_temperature;BMP_pressure;BME280_temperature;BME280_humidity;BME280_pressure;Samples;Min_cycle;Max_cycle;Signal;HPM_P1;HPM_P2
2022/11/27 00:00:23;;;;;;;12.52;7.38;;;;;;;-1.69;75.49;94289.09;5088679;28;20036;-34
2022/11/27 00:02:49;;;;;;;18.55;10.50;;;;;;;-1.65;75.66;94303.22;5086387;28;20048;-34
2022/11/27 00:05:14;;;;;;;17.60;11.18;;;;;;;-1.50;75.61;94308.78;5081816;28;20047;-34
2022/11/27 00:07:40;;;;;;;17.35;10.95;;;;;;;-1.45;75.82;94308.22;5084651;28;20024;-34
2022/11/27 00:10:06;;;;;;;18.88;10.40;;;;;;;-1.38;75.86;94305.94;5085752;28;20020;-34
2022/11/27 00:12:32;;;;;;;22.35;13.35;;;;;;;-1.29;76.08;94308.66;5079154;28;20145;-34
2022/11/27 00:14:57;;;;;;;27.65;14.73;;;;;;;-1.21;75.81;94307.13;5083100;28;20110;-35
2022/11/27 00:17:23;;;;;;;32.15;16.20;;;;;;;-1.20;75.66;94308.66;5084465;28;20020;-34
2022/11/27 00:19:48;;;;;;;26.80;15.05;;;;;;;-1.16;76.02;94305.78;5086449;28;20023;-34
2022/11/27 00:22:14;;;;;;;14.70;9.20;;;;;;;-1.13;75.93;94302.19;5075970;28;20027;-34
2022/11/27 00:24:39;;;;;;;14.73;8.85;;;;;;;-1.08;75.94;94293.44;5075582;28;20032;-35
2022/11/27 00:27:04;;;;;;;11.82;7.75;;;;;;;-1.01;75.99;94304.72;5054489;28;20031;-34
2022/11/27 00:29:30;;;;;;;9.52;6.13;;;;;;;-0.95;75.82;94304.84;5081206;28;20086;-34
2022/11/27 00:31:56;;;;;;;8.02;5.45;;;;;;;-0.92;76.47;94309.38;5088050;28;20020;-35
2022/11/27 00:34:22;;;;;;;11.77;6.85;;;;;;;-0.81;76.69;94309.66;5081473;28;20103;-35
2022/11/27 00:36:47;;;;;;;11.27;7.68;;;;;;;-0.96;76.69;94298.72;5079134;28;20470;-35
2022/11/27 00:39:13;;;;;;;10.98;6.25;;;;;;;-0.82;76.73;94319.75;5079390;28;20496;-35
2022/11/27 00:41:39;;;;;;;17.88;9.10;;;;;;;-0.69;76.54;94316.88;5089374;28;20063;-35
2022/11/27 00:44:05;;;;;;;15.05;9.38;;;;;;;-0.59;76.42;94323.78;5081830;28;20020;-35
2022/11/27 00:46:32;;;;;;;17.55;10.05;;;;;;;-0.58;76.53;94328.00;5088724;28;20050;-34
2022/11/27 00:48:59;;;;;;;49.78;18.83;;;;;;;-0.47;76.47;94322.09;5085888;28;20492;-35
2022/11/27 00:51:25;;;;;;;23.65;13.80;;;;;;;-0.53;76.35;94332.81;5092932;28;20028;-35
2022/11/27 00:53:51;;;;;;;21.00;12.68;;;;;;;-0.62;76.60;94330.13;5087214;28;20051;-35
2022/11/27 00:56:24;;;;;;;21.23;13.50;;;;;;;-0.51;76.99;94329.63;5069667;28;20055;-35
2022/11/27 00:58:50;;;;;;;21.50;13.02;;;;;;;-0.48;76.71;94315.94;5086085;28;20415;-35
2022/11/27 01:01:23;;;;;;;20.05;12.63;;;;;;;-0.48;76.93;94326.03;5071747;28;20408;-35
2022/11/27 01:03:50;;;;;;;17.45;11.60;;;;;;;-0.46;77.15;94318.94;5084502;28;20028;-35
2022/11/27 01:06:17;;;;;;;20.75;12.48;;;;;;;-0.40;76.94;94317.09;5090828;28;20054;-35
2022/11/27 01:08:43;;;;;;;15.88;9.48;;;;;;;-0.47;77.51;94306.56;5085189;28;20070;-35
2022/11/27 01:11:20;;;;;;;16.50;11.05;;;;;;;-0.33;77.95;94308.66;5093040;28;20027;-35
2022/11/27 01:13:46;;;;;;;22.77;12.75;;;;;;;-0.30;77.48;94306.97;5088167;28;20028;-35
2022/11/27 01:16:14;;;;;;;24.45;14.70;;;;;;;-0.31;77.73;94306.22;5056497;28;20028;-35
2022/11/27 01:18:42;;;;;;;35.58;18.98;;;;;;;-0.16;77.59;94303.59;5085104;28;20016;-35
2022/11/27 01:21:08;;;;;;;39.13;21.30;;;;;;;-0.06;77.29;94303.09;5092275;28;20050;-35
2022/11/27 01:23:34;;;;;;;35.45;18.02;;;;;;;0.04;76.74;94303.06;5082210;28;20029;-35
2022/11/27 01:26:01;;;;;;;39.42;18.90;;;;;;;0.11;75.55;94298.03;5091065;28;20440;-35
2022/11/27 01:28:26;;;;;;;35.92;18.83;;;;;;;0.09;75.53;94302.44;5089908;28;20027;-35
2022/11/27 01:30:52;;;;;;;37.10;18.73;;;;;;;0.06;75.48;94298.69;5092607;28;20048;-35
2022/11/27 01:33:18;;;;;;;34.53;18.15;;;;;;;-0.02;75.99;94298.25;5087006;28;20284;-35
2022/11/27 01:35:52;;;;;;;32.25;17.92;;;;;;;0.07;76.13;94305.59;5084735;28;20511;-35
2022/11/27 01:38:18;;;;;;;28.33;16.00;;;;;;;0.09;76.13;94292.31;5092361;28;20031;-35
2022/11/27 01:40:43;;;;;;;33.58;16.98;;;;;;;0.04;76.77;94287.53;5085499;28;20084;-35
2022/11/27 01:43:13;;;;;;;29.02;16.65;;;;;;;0.02;77.08;94291.91;5085708;28;20016;-35
2022/11/27 01:45:39;;;;;;;39.42;18.83;;;;;;;-0.10;77.15;94271.91;5089544;28;20068;-35
2022/11/27 01:48:04;;;;;;;35.35;18.58;;;;;;;0.00;77.23;94281.53;5085008;28;20047;-35
2022/11/27 01:50:35;;;;;;;33.38;18.42;;;;;;;-0.18;77.85;94278.88;5060140;28;20380;-35
2022/11/27 01:53:19;;;;;;;38.35;19.50;;;;;;;-0.30;78.56;94282.53;5064254;28;20081;-35
2022/11/27 01:55:47;;;;;;;34.30;18.70;;;;;;;-0.16;78.96;94271.78;5077132;28;20020;-35
2022/11/27 01:58:19;;;;;;;33.63;16.70;;;;;;;-0.07;78.19;94277.19;5082420;28;20484;-35
2022/11/27 02:00:45;;;;;;;26.83;14.77;;;;;;;-0.07;78.59;94274.47;5086802;28;20107;-35
2022/11/27 02:03:10;;;;;;;26.98;14.85;;;;;;;-0.11;78.89;94275.84;5089767;28;20034;-35
2022/11/27 02:05:36;;;;;;;30.63;15.07;;;;;;;-0.02;78.83;94279.25;5086504;28;20078;-35
2022/11/27 02:08:07;;;;;;;30.13;14.20;;;;;;;0.11;78.25;94278.28;5090751;28;20020;-34
2022/11/27 02:11:00;;;;;;;43.85;21.40;;;;;;;0.09;78.43;94283.44;5064341;28;20491;-35
2022/11/27 02:14:01;;;;;;;39.15;20.15;;;;;;;0.17;78.73;94276.44;5065315;28;20099;-35
2022/11/27 02:16:29;;;;;;;42.63;21.45;;;;;;;0.21;78.30;94279.75;5086850;28;20023;-35
2022/11/27 02:19:04;;;;;;;48.80;23.50;;;;;;;0.13;77.82;94271.16;5065721;28;20017;-35
2022/11/27 02:21:34;;;;;;;43.35;22.63;;;;;;;0.20;77.30;94286.38;5081174;28;20032;-35
2022/11/27 02:24:53;;;;;;;45.42;23.48;;;;;;;0.16;77.18;94283.06;5063002;28;20408;-35
2022/11/27 02:27:47;;;;;;;43.28;21.73;;;;;;;0.28;76.99;94284.84;5006295;28;20112;-35
2022/11/27 02:30:13;;;;;;;35.50;21.25;;;;;;;0.34;76.85;94291.13;5065633;28;20044;-35
2022/11/27 02:32:44;;;;;;;45.15;22.25;;;;;;;0.31;76.25;94287.38;5069653;28;20081;-35
2022/11/27 02:35:30;;;;;;;44.50;23.63;;;;;;;0.35;76.57;94287.19;5084756;28;20114;-35
2022/11/27 02:38:00;;;;;;;45.72;22.73;;;;;;;0.21;76.82;94283.22;5087970;28;20027;-35
2022/11/27 02:40:51;;;;;;;41.53;22.35;;;;;;;0.18;77.43;94286.84;5072726;28;20024;-35
2022/11/27 02:43:37;;;;;;;32.88;19.30;;;;;;;0.30;77.57;94291.31;5083708;28;20100;-35
2022/11/27 02:46:04;;;;;;;34.90;18.50;;;;;;;0.13;77.99;94295.59;5062682;28;20027;-35
2022/11/27 02:48:44;;;;;;;28.52;15.77;;;;;;;0.21;78.07;94280.50;5070842;28;20055;-35
2022/11/27 02:51:10;;;;;;;26.40;15.65;;;;;;;0.33;77.54;94287.66;5082024;28;20450;-34
2022/11/27 02:53:39;;;;;;;32.35;16.40;;;;;;;0.36;77.97;94285.97;5067893;28;20107;-34
2022/11/27 02:56:11;;;;;;;35.10;18.85;;;;;;;0.30;77.93;94269.59;5069868;28;20154;-34
2022/11/27 02:58:37;;;;;;;32.72;17.95;;;;;;;0.44;78.27;94282.44;5071689;28;20055;-34
2022/11/27 03:01:04;;;;;;;46.28;22.75;;;;;;;0.38;78.25;94291.69;5087981;28;20552;-34
2022/11/27 03:03:34;;;;;;;37.15;19.77;;;;;;;0.37;78.52;94285.50;5089438;28;20392;-35
2022/11/27 03:06:05;;;;;;;32.67;17.75;;;;;;;0.41;77.89;94296.22;5062318;28;20032;-35
2022/11/27 03:08:37;;;;;;;38.40;20.85;;;;;;;0.47;78.28;94283.50;5062473;28;20054;-35
2022/11/27 03:11:07;;;;;;;38.35;22.63;;;;;;;0.49;78.00;94281.06;5058454;28;20020;-35
2022/11/27 03:13:37;;;;;;;58.63;31.20;;;;;;;0.49;78.20;94284.53;5081968;28;20028;-35
2022/11/27 03:16:27;;;;;;;66.03;35.20;;;;;;;0.45;78.07;94292.13;5066070;28;20020;-35
2022/11/27 03:19:07;;;;;;;45.92;25.55;;;;;;;0.29;78.46;94289.03;5088120;28;20099;-35
2022/11/27 03:21:43;;;;;;;42.85;25.48;;;;;;;0.37;78.25;94296.38;5086503;28;20020;-35
2022/11/27 03:24:09;;;;;;;42.88;24.40;;;;;;;0.37;78.53;94285.50;5062981;28;20032;-35
2022/11/27 03:26:36;;;;;;;42.05;22.75;;;;;;;0.42;78.28;94289.56;5081426;28;20531;-35
2022/11/27 03:29:04;;;;;;;40.80;22.02;;;;;;;0.45;78.18;94292.13;5084008;28;20020;-35
2022/11/27 03:31:30;;;;;;;50.03;27.80;;;;;;;0.43;78.23;94299.97;5082316;28;20404;-35
2022/11/27 03:33:55;;;;;;;47.20;23.85;;;;;;;0.40;78.86;94297.41;5079243;28;20500;-35
2022/11/27 03:36:21;;;;;;;58.05;23.90;;;;;;;0.27;78.73;94275.94;5071705;28;20051;-35
2022/11/27 03:38:48;;;;;;;47.55;22.80;;;;;;;0.33;78.82;94295.81;5086591;28;20027;-35
2022/11/27 03:41:31;;;;;;;42.05;22.27;;;;;;;0.23;78.76;94294.34;5082591;28;20028;-35
2022/11/27 03:44:15;;;;;;;41.20;22.33;;;;;;;0.22;78.89;94287.41;5081132;28;20036;-35
2022/11/27 03:47:08;;;;;;;35.22;18.67;;;;;;;0.15;80.12;94284.31;5082407;28;20112;-35
2022/11/27 03:49:42;;;;;;;29.23;15.82;;;;;;;0.23;79.40;94280.03;5078301;28;20039;-35
2022/11/27 03:52:33;;;;;;;27.42;15.55;;;;;;;0.32;79.58;94286.16;5088649;28;20028;-35
2022/11/27 03:55:29;;;;;;;28.00;14.93;;;;;;;0.21;79.58;94288.63;5083670;28;20020;-35
2022/11/27 03:58:02;;;;;;;22.63;13.00;;;;;;;0.25;80.05;94278.34;5057786;28;20147;-34
2022/11/27 04:00:35;;;;;;;26.73;13.45;;;;;;;0.29;79.77;94284.38;5064257;28;20061;-34
2022/11/27 04:03:01;;;;;;;23.67;11.88;;;;;;;0.29;79.42;94283.59;5062892;28;20021;-35
2022/11/27 04:05:27;;;;;;;20.23;11.68;;;;;;;0.21;79.00;94283.22;5080086;28;20048;-34
2022/11/27 04:07:52;;;;;;;21.63;11.45;;;;;;;0.12;79.52;94274.34;5070428;28;20409;-35
2022/11/27 04:10:18;;;;;;;17.38;10.68;;;;;;;0.08;79.68;94265.63;5087713;28;20024;-35
2022/11/27 04:12:43;;;;;;;16.80;9.45;;;;;;;0.13;79.39;94275.88;5084257;28;20516;-34
2022/11/27 04:15:09;;;;;;;14.57;8.68;;;;;;;0.08;79.51;94260.19;5079603;28;20400;-34
2022/11/27 04:17:35;;;;;;;17.80;9.68;;;;;;;-0.01;79.37;94261.75;5080795;28;20032;-34
2022/11/27 04:20:00;;;;;;;14.43;9.23;;;;;;;-0.02;79.28;94268.38;5089130;28;20074;-34
2022/11/27 04:22:26;;;;;;;15.80;10.73;;;;;;;-0.17;79.35;94247.81;5091421;28;20026;-34
2022/11/27 04:24:51;;;;;;;11.93;6.72;;;;;;;-0.16;79.44;94262.91;5088491;28;20024;-34
2022/11/27 04:27:17;;;;;;;12.52;7.75;;;;;;;-0.25;80.09;94268.34;5093611;28;20020;-35
2022/11/27 04:29:42;;;;;;;13.25;7.80;;;;;;;-0.51;80.17;94261.84;5074164;28;20074;-35
2022/11/27 04:32:08;;;;;;;11.27;6.93;;;;;;;-0.42;79.88;94262.56;5088913;28;20028;-35
2022/11/27 04:34:33;;;;;;;8.77;6.30;;;;;;;-0.37;80.18;94267.34;5092887;28;20035;-35
2022/11/27 04:36:59;;;;;;;12.05;6.15;;;;;;;-0.34;79.82;94266.44;5070347;28;20031;-35
2022/11/27 04:39:24;;;;;;;13.35;6.97;;;;;;;-0.39;80.40;94271.75;5078604;28;20023;-34
2022/11/27 04:41:50;;;;;;;15.30;7.65;;;;;;;-0.45;80.46;94270.84;5080600;28;20031;-34
2022/11/27 04:44:15;;;;;;;15.68;8.35;;;;;;;-0.67;80.31;94248.66;5087735;28;20028;-35
2022/11/27 04:46:41;;;;;;;11.80;7.20;;;;;;;-0.57;79.87;94272.56;5091178;28;20028;-34
2022/11/27 04:49:08;;;;;;;10.90;6.63;;;;;;;-0.84;80.21;94254.41;5089523;28;20512;-35
2022/11/27 04:51:33;;;;;;;11.57;6.50;;;;;;;-0.57;80.09;94277.97;5086631;28;20095;-34
2022/11/27 04:53:58;;;;;;;7.07;5.80;;;;;;;-0.50;80.38;94272.25;5088732;28;20027;-34
2022/11/27 04:56:24;;;;;;;11.77;6.70;;;;;;;-0.59;80.46;94269.56;5084362;28;20099;-35
2022/11/27 04:58:49;;;;;;;11.90;7.00;;;;;;;-0.70;80.43;94276.66;5065933;28;20081;-35
2022/11/27 05:01:15;;;;;;;13.25;7.57;;;;;;;-0.83;81.59;94276.84;5091002;28;20024;-35
2022/11/27 05:03:40;;;;;;;9.38;6.60;;;;;;;-0.64;80.79;94283.72;5084978;28;20055;-35
2022/11/27 05:06:06;;;;;;;12.98;6.95;;;;;;;-0.67;81.43;94289.31;5087185;28;20044;-35
2022/11/27 05:08:32;;;;;;;12.05;6.88;;;;;;;-0.49;80.67;94287.28;5086453;28;20021;-35
2022/11/27 05:11:02;;;;;;;20.45;5.88;;;;;;;-0.52;80.25;94284.75;5092585;28;20077;-35
2022/11/27 05:13:28;;;;;;;14.00;6.25;;;;;;;-0.61;80.19;94288.25;5086544;28;20074;-35
2022/11/27 05:15:53;;;;;;;9.13;5.78;;;;;;;-0.68;80.74;94285.84;5091340;28;20012;-35
2022/11/27 05:18:19;;;;;;;13.15;6.03;;;;;;;-0.59;80.29;94306.75;5091366;28;20035;-35
2022/11/27 05:20:44;;;;;;;9.70;6.32;;;;;;;-0.59;80.32;94310.22;5083186;28;20013;-35
2022/11/27 05:23:09;;;;;;;12.73;7.43;;;;;;;-0.55;80.77;94310.06;5084874;28;20382;-35
2022/11/27 05:25:35;;;;;;;12.50;7.35;;;;;;;-0.40;79.98;94303.53;5089534;28;20404;-35
2022/11/27 05:28:00;;;;;;;11.50;8.05;;;;;;;-0.47;80.40;94311.25;5082288;28;20462;-35
2022/11/27 05:30:26;;;;;;;11.95;8.15;;;;;;;-0.41;80.49;94304.00;5080867;28;20389;-35
2022/11/27 05:32:51;;;;;;;14.68;10.13;;;;;;;-0.44;80.34;94300.25;5083131;28;20442;-34
2022/11/27 05:35:16;;;;;;;16.27;11.13;;;;;;;-0.40;80.22;94306.25;5088370;28;20048;-35
2022/11/27 05:37:42;;;;;;;19.15;12.05;;;;;;;-0.31;79.55;94314.38;5090234;28;20039;-35
2022/11/27 05:40:08;;;;;;;20.52;13.30;;;;;;;-0.36;79.54;94319.66;5082457;28;20053;-35
2022/11/27 05:42:33;;;;;;;24.30;13.57;;;;;;;-0.19;79.50;94318.84;5086553;28;20507;-34
2022/11/27 05:44:58;;;;;;;23.88;13.23;;;;;;;-0.16;79.20;94311.75;5082931;28;20020;-34
2022/11/27 05:47:24;;;;;;;24.98;14.35;;;;;;;-0.13;78.39;94322.44;5085627;28;20093;-34
2022/11/27 05:49:50;;;;;;;34.78;16.70;;;;;;;-0.18;78.80;94311.44;5080069;28;20048;-34
2022/11/27 05:52:15;;;;;;;36.15;17.20;;;;;;;-0.16;78.84;94319.88;5080261;28;20032;-34
2022/11/27 05:54:41;;;;;;;32.63;19.58;;;;;;;-0.27;78.71;94325.81;5086009;28;20039;-35
2022/11/27 05:57:06;;;;;;;40.42;22.55;;;;;;;-0.25;79.45;94325.34;5086436;28;20024;-35
2022/11/27 05:59:31;;;;;;;43.83;25.23;;;;;;;-0.25;79.76;94320.69;5090188;28;20027;-35
2022/11/27 06:01:57;;;;;;;37.70;21.63;;;;;;;-0.23;79.60;94320.97;5087463;28;20032;-35
2022/11/27 06:04:22;;;;;;;35.90;20.67;;;;;;;-0.19;79.59;94326.22;5087469;28;20066;-35
2022/11/27 06:06:48;;;;;;;31.60;19.08;;;;;;;-0.10;79.73;94326.94;5084951;28;20044;-34
2022/11/27 06:09:13;;;;;;;43.92;23.52;;;;;;;-0.06;79.43;94332.19;5084681;28;20043;-34
2022/11/27 06:11:39;;;;;;;39.10;21.38;;;;;;;-0.06;79.41;94324.81;5078612;28;20169;-35
2022/11/27 06:14:09;;;;;;;38.25;22.05;;;;;;;-0.06;79.00;94324.06;5080546;28;20016;-35
2022/11/27 06:16:35;;;;;;;29.90;16.98;;;;;;;0.03;79.19;94326.72;5091641;28;20528;-35
2022/11/27 06:19:01;;;;;;;34.85;20.45;;;;;;;0.12;79.72;94331.38;5091533;28;20103;-35
2022/11/27 06:21:26;;;;;;;65.28;32.95;;;;;;;0.15;79.42;94330.47;5091116;28;20028;-35
2022/11/27 06:23:54;;;;;;;57.60;30.92;;;;;;;0.20;79.46;94327.09;5087219;28;20048;-35
2022/11/27 06:26:25;;;;;;;62.10;32.97;;;;;;;0.31;79.91;94330.81;5087120;28;20057;-34
2022/11/27 06:28:51;;;;;;;79.68;34.70;;;;;;;0.48;79.44;94325.72;5088448;28;20024;-34
2022/11/27 06:31:19;;;;;;;110.40;44.53;;;;;;;0.59;79.14;94334.13;5089202;28;20100;-34
2022/11/27 06:33:46;;;;;;;53.50;30.30;;;;;;;0.51;79.38;94327.53;5080689;28;20038;-34
2022/11/27 06:36:11;;;;;;;57.65;31.02;;;;;;;0.61;78.66;94328.97;5083121;28;20032;-34
2022/11/27 06:38:37;;;;;;;60.97;33.13;;;;;;;0.58;78.41;94294.59;5086346;28;20029;-34
2022/11/27 06:41:09;;;;;;;54.53;31.55;;;;;;;0.66;77.86;94323.66;5073344;28;20016;-35
2022/11/27 06:43:35;;;;;;;70.15;36.72;;;;;;;0.68;77.72;94301.44;5085399;28;20020;-34
2022/11/27 06:46:02;;;;;;;78.13;40.42;;;;;;;0.99;77.34;94322.81;5088561;28;20085;-34
2022/11/27 06:48:28;;;;;;;61.67;35.10;;;;;;;1.01;76.76;94318.41;5085319;28;20764;-35
2022/11/27 06:50:53;;;;;;;53.30;33.63;;;;;;;1.11;76.69;94319.06;5083685;28;20107;-35
2022/11/27 06:53:19;;;;;;;69.88;39.72;;;;;;;1.18;76.56;94326.88;5081270;28;20024;-34
2022/11/27 06:55:46;;;;;;;85.43;48.88;;;;;;;1.19;76.40;94320.97;5080642;28;20028;-35
2022/11/27 06:58:11;;;;;;;93.80;52.03;;;;;;;1.38;76.49;94319.59;5079250;28;20024;-35
2022/11/27 07:00:36;;;;;;;97.68;54.70;;;;;;;1.57;76.09;94327.56;5085211;28;20039;-35
2022/11/27 07:03:02;;;;;;;101.15;56.58;;;;;;;1.71;75.87;94326.81;5084655;28;20102;-35
2022/11/27 07:05:28;;;;;;;104.20;58.95;;;;;;;1.75;75.34;94322.69;5083847;28;20066;-35
2022/11/27 07:07:54;;;;;;;108.05;59.08;;;;;;;1.78;74.69;94327.19;5086978;28;20052;-35
2022/11/27 07:10:20;;;;;;;86.45;48.38;;;;;;;1.89;74.95;94323.88;5085467;28;20106;-35
2022/11/27 07:12:46;;;;;;;47.55;29.55;;;;;;;1.98;74.28;94323.78;5088432;28;20047;-35
2022/11/27 07:15:11;;;;;;;48.70;30.35;;;;;;;2.08;74.23;94325.19;5081259;28;20035;-35
2022/11/27 07:17:37;;;;;;;51.10;28.73;;;;;;;2.09;73.69;94321.22;5086153;28;20028;-35
2022/11/27 07:20:02;;;;;;;33.60;22.63;;;;;;;2.17;73.50;94319.59;5083530;28;20020;-35
2022/11/27 07:22:30;;;;;;;38.17;20.30;;;;;;;2.25;73.53;94323.44;5080411;28;20043;-35
2022/11/27 07:24:56;;;;;;;31.35;20.65;;;;;;;2.19;74.09;94323.34;5081630;28;20033;-35
2022/11/27 07:27:21;;;;;;;25.70;16.15;;;;;;;2.30;74.04;94322.75;5080954;28;20034;-35
2022/11/27 07:29:47;;;;;;;19.75;14.15;;;;;;;2.30;73.99;94320.03;5079777;28;20575;-35
2022/11/27 07:32:12;;;;;;;23.13;13.32;;;;;;;2.40;73.74;94315.22;5063110;28;20032;-34
2022/11/27 07:34:38;;;;;;;18.23;11.50;;;;;;;2.52;74.22;94312.16;5078463;28;20040;-35
2022/11/27 07:37:03;;;;;;;19.92;12.30;;;;;;;2.69;74.15;94310.41;5076490;28;20518;-35
2022/11/27 07:39:29;;;;;;;15.90;10.00;;;;;;;2.91;73.75;94316.13;5079008;28;20633;-35
2022/11/27 07:41:54;;;;;;;23.42;12.50;;;;;;;3.13;73.24;94312.16;5078448;28;20040;-35
2022/11/27 07:44:19;;;;;;;22.85;13.55;;;;;;;3.44;72.42;94315.72;5079796;28;20104;-35
2022/11/27 07:46:45;;;;;;;15.48;9.18;;;;;;;3.78;72.00;94314.03;5076636;28;20029;-35
2022/11/27 07:49:10;;;;;;;15.00;9.25;;;;;;;3.93;70.04;94306.47;5078037;28;20067;-35
2022/11/27 07:51:37;;;;;;;14.25;8.88;;;;;;;4.12;69.18;94301.38;5079259;28;20024;-35
2022/11/27 07:54:03;;;;;;;11.20;7.40;;;;;;;4.41;69.01;94315.50;5078598;28;20047;-35
2022/11/27 07:56:29;;;;;;;12.25;7.75;;;;;;;4.62;67.67;94318.84;5082984;28;20089;-34
2022/11/27 07:58:56;;;;;;;10.82;7.90;;;;;;;4.73;67.34;94312.69;5077417;28;20496;-35
2022/11/27 08:01:22;;;;;;;21.90;11.65;;;;;;;4.86;67.48;94308.28;5083588;28;20115;-34
2022/11/27 08:03:48;;;;;;;22.35;14.05;;;;;;;4.92;66.07;94309.06;5084283;28;20650;-35
2022/11/27 08:06:22;;;;;;;28.67;17.17;;;;;;;5.03;66.54;94322.03;5079391;28;20040;-34
2022/11/27 08:08:49;;;;;;;18.40;11.35;;;;;;;5.08;66.67;94311.13;5072479;28;20439;-34
2022/11/27 08:11:17;;;;;;;25.25;14.35;;;;;;;5.17;66.48;94312.88;5073045;28;20024;-35
2022/11/27 08:13:43;;;;;;;29.48;15.40;;;;;;;5.14;65.77;94303.66;5078636;28;20037;-35
2022/11/27 08:16:08;;;;;;;21.38;12.35;;;;;;;5.26;65.49;94307.19;5085362;28;20020;-35
2022/11/27 08:18:34;;;;;;;20.92;13.55;;;;;;;5.28;65.02;94315.66;5085465;28;20032;-34
2022/11/27 08:20:59;;;;;;;22.45;13.30;;;;;;;5.23;64.83;94321.88;5085704;28;20028;-34
2022/11/27 08:23:25;;;;;;;12.13;8.90;;;;;;;5.06;65.07;94319.06;5086386;28;20114;-34
2022/11/27 08:25:50;;;;;;;11.65;8.77;;;;;;;4.88;65.52;94313.25;5082128;28;20166;-34
2022/11/27 08:28:16;;;;;;;15.48;8.98;;;;;;;4.93;65.20;94316.03;5087877;28;20024;-34
2022/11/27 08:30:41;;;;;;;12.05;8.15;;;;;;;4.95;65.35;94316.28;5083749;28;20074;-35
2022/11/27 08:33:09;;;;;;;11.77;8.25;;;;;;;4.99;66.16;94318.78;5082299;28;20024;-35
2022/11/27 08:35:34;;;;;;;14.60;9.45;;;;;;;5.10;65.90;94321.56;5084830;28;20024;-35
2022/11/27 08:38:00;;;;;;;13.38;9.43;;;;;;;5.16;66.39;94308.66;5076087;28;20062;-34
2022/11/27 08:40:25;;;;;;;27.80;12.50;;;;;;;5.25;65.59;94300.22;5072151;28;20089;-35
2022/11/27 08:42:51;;;;;;;17.25;10.82;;;;;;;5.37;65.61;94301.75;5077661;28;20031;-35
2022/11/27 08:45:17;;;;;;;41.05;18.23;;;;;;;5.39;65.16;94304.75;5082444;28;20507;-35
2022/11/27 08:47:42;;;;;;;20.35;12.05;;;;;;;5.53;64.86;94290.06;5088034;28;20056;-35
2022/11/27 08:50:08;;;;;;;25.02;12.63;;;;;;;5.74;64.72;94299.56;5087102;28;20573;-34
2022/11/27 08:52:34;;;;;;;41.28;16.52;;;;;;;5.76;64.55;94301.81;5079429;28;20114;-35
2022/11/27 08:54:59;;;;;;;35.17;19.52;;;;;;;5.79;63.97;94289.84;5084756;28;20028;-35
2022/11/27 08:57:25;;;;;;;104.93;40.20;;;;;;;5.88;63.88;94295.88;5088322;28;20016;-34
2022/11/27 08:59:50;;;;;;;48.40;25.52;;;;;;;6.07;64.68;94283.16;5084381;28;20458;-35
2022/11/27 09:02:16;;;;;;;29.52;15.75;;;;;;;6.15;64.10;94271.69;5080650;28;20496;-35
2022/11/27 09:04:41;;;;;;;58.03;21.27;;;;;;;6.34;63.78;94289.13;5065532;28;20051;-35
2022/11/27 09:07:07;;;;;;;33.42;16.02;;;;;;;6.58;63.13;94286.59;5083197;28;20032;-34
2022/11/27 09:09:33;;;;;;;22.70;13.43;;;;;;;6.79;62.49;94287.78;5085742;28;20043;-35
2022/11/27 09:11:58;;;;;;;36.40;14.43;;;;;;;6.93;62.11;94281.22;5090511;28;20038;-35
2022/11/27 09:14:24;;;;;;;20.60;12.63;;;;;;;7.02;61.94;94274.72;5072011;28;20503;-35
2022/11/27 09:16:50;;;;;;;13.40;10.40;;;;;;;7.06;61.50;94277.94;5081834;28;20135;-35
2022/11/27 09:19:16;;;;;;;19.85;10.55;;;;;;;7.06;61.38;94275.22;5085256;28;20099;-35
2022/11/27 09:21:41;;;;;;;24.55;15.85;;;;;;;7.07;61.80;94266.44;5084924;28;20107;-35
2022/11/27 09:24:08;;;;;;;28.60;16.83;;;;;;;7.22;61.36;94271.63;5089803;28;20079;-35
2022/11/27 09:26:34;;;;;;;27.17;18.27;;;;;;;7.25;61.84;94257.63;5083978;28;20526;-34
2022/11/27 09:28:59;;;;;;;19.65;13.18;;;;;;;7.28;61.28;94262.09;5081881;28;20043;-35
2022/11/27 09:31:25;;;;;;;10.30;7.13;;;;;;;7.32;60.67;94259.09;5080446;28;20504;-35
2022/11/27 09:33:50;;;;;;;9.38;6.03;;;;;;;7.27;59.98;94273.59;5089274;28;20086;-35
2022/11/27 09:36:19;;;;;;;13.98;7.22;;;;;;;7.26;60.43;94259.13;5088534;28;20059;-35
2022/11/27 09:38:45;;;;;;;13.98;9.00;;;;;;;7.08;60.29;94258.97;5088102;28;20036;-34
2022/11/27 09:41:10;;;;;;;15.18;10.50;;;;;;;6.78;61.12;94267.06;5070057;28;20553;-35
2022/11/27 09:43:57;;;;;;;17.10;10.98;;;;;;;6.75;61.30;94255.09;5088879;28;20038;-35
2022/11/27 09:46:28;;;;;;;15.60;11.13;;;;;;;6.68;61.34;94257.63;5080833;28;20419;-35
2022/11/27 09:48:55;;;;;;;5.55;3.88;;;;;;;6.65;56.51;94253.88;5085315;28;20541;-34
2022/11/27 09:51:34;;;;;;;8.13;2.42;;;;;;;6.46;54.96;94243.97;5088017;28;20024;-35
2022/11/27 09:54:04;;;;;;;3.40;2.63;;;;;;;6.24;56.71;94241.28;5086395;28;20085;-34
2022/11/27 09:56:32;;;;;;;8.25;4.30;;;;;;;6.19;56.19;94236.53;5088941;28;20434;-34
2022/11/27 09:58:58;;;;;;;5.45;3.58;;;;;;;6.03;57.97;94240.78;5071889;28;20020;-35
2022/11/27 10:01:26;;;;;;;3.20;2.10;;;;;;;5.93;55.77;94245.06;5068987;28;20024;-34
2022/11/27 10:03:52;;;;;;;3.83;2.38;;;;;;;5.82;56.68;94240.28;5070402;28;20393;-34
2022/11/27 10:06:27;;;;;;;3.05;2.05;;;;;;;5.74;57.56;94233.81;5087111;28;20043;-34
2022/11/27 10:09:15;;;;;;;2.88;2.38;;;;;;;5.92;56.37;94225.13;5090866;28;20040;-35
2022/11/27 10:11:51;;;;;;;4.15;2.60;;;;;;;5.93;57.12;94228.59;5070883;28;20032;-35
2022/11/27 10:14:32;;;;;;;4.22;2.83;;;;;;;6.09;55.85;94214.88;5089733;28;20098;-34
2022/11/27 10:17:06;;;;;;;2.42;1.98;;;;;;;6.20;54.70;94214.09;5090873;28;20343;-35
2022/11/27 10:19:38;;;;;;;4.63;2.80;;;;;;;6.11;55.05;94203.41;5071138;28;20139;-35
2022/11/27 10:22:22;;;;;;;5.10;2.38;;;;;;;6.20;56.88;94214.09;5070617;28;20032;-35
2022/11/27 10:25:19;;;;;;;2.97;2.17;;;;;;;6.33;55.77;94206.09;5088190;28;20452;-35
2022/11/27 10:28:03;;;;;;;10.27;3.63;;;;;;;6.50;56.78;94211.53;5068689;28;20040;-35
2022/11/27 10:30:30;;;;;;;7.82;4.07;;;;;;;6.49;56.47;94204.56;5080953;28;20657;-34
2022/11/27 10:32:58;;;;;;;6.35;3.67;;;;;;;6.56;56.41;94204.03;5067479;28;20492;-35
2022/11/27 10:35:26;;;;;;;6.22;4.20;;;;;;;6.65;56.62;94201.00;5060651;28;20500;-35
2022/11/27 10:38:10;;;;;;;7.07;5.68;;;;;;;6.70;55.83;94194.75;5079678;28;20035;-35
2022/11/27 10:41:04;;;;;;;9.05;5.18;;;;;;;6.73;55.70;94201.97;5061064;28;20052;-35
2022/11/27 10:43:29;;;;;;;7.82;5.55;;;;;;;6.65;57.17;94193.50;5078972;28;20040;-35
2022/11/27 10:46:02;;;;;;;8.02;5.25;;;;;;;6.59;57.94;94190.06;5077096;28;20040;-35
2022/11/27 10:48:28;;;;;;;5.35;4.15;;;;;;;6.56;59.23;94193.06;5063492;28;20024;-35
2022/11/27 10:50:54;;;;;;;5.28;3.78;;;;;;;6.47;60.42;94196.09;5085142;28;20043;-34
2022/11/27 10:53:32;;;;;;;7.78;4.10;;;;;;;6.39;60.82;94190.38;5075172;28;20412;-35
2022/11/27 10:56:03;;;;;;;7.45;4.20;;;;;;;6.40;60.28;94188.38;5063195;28;20511;-35
2022/11/27 10:58:39;;;;;;;20.27;10.63;;;;;;;6.38;60.50;94186.16;5087614;28;20477;-35
2022/11/27 11:01:16;;;;;;;27.50;13.35;;;;;;;6.35;60.83;94181.66;5065478;28;20416;-34
2022/11/27 11:03:42;;;;;;;23.65;11.65;;;;;;;6.31;60.17;94183.16;5089139;28;20092;-35
2022/11/27 11:06:15;;;;;;;12.07;7.50;;;;;;;6.24;61.08;94178.22;5075380;28;20052;-35
2022/11/27 11:08:40;;;;;;;11.75;7.35;;;;;;;6.25;62.03;94179.69;5084615;28;20031;-35
2022/11/27 11:11:07;;;;;;;16.83;9.13;;;;;;;6.25;61.95;94174.22;5082300;28;20067;-35
2022/11/27 11:13:39;;;;;;;23.08;11.38;;;;;;;6.23;61.50;94171.97;5078511;28;20053;-35
2022/11/27 11:16:13;;;;;;;32.40;13.60;;;;;;;6.13;62.11;94172.75;5082269;28;20523;-34
2022/11/27 11:18:52;;;;;;;34.88;15.65;;;;;;;6.07;62.30;94170.00;5062137;28;20036;-35
2022/11/27 11:21:29;;;;;;;19.42;11.55;;;;;;;5.78;62.90;94137.66;5065442;28;20054;-35
2022/11/27 11:23:59;;;;;;;16.02;8.93;;;;;;;5.96;63.55;94167.28;5074544;28;20031;-35
2022/11/27 11:26:29;;;;;;;12.55;7.75;;;;;;;5.94;63.65;94161.56;5080000;28;20037;-35
2022/11/27 11:28:58;;;;;;;10.38;6.38;;;;;;;5.93;63.61;94166.28;5086453;28;20035;-35
2022/11/27 11:31:32;;;;;;;19.92;10.82;;;;;;;5.81;63.21;94162.06;5082163;28;20446;-35
2022/11/27 11:34:03;;;;;;;14.60;9.00;;;;;;;5.87;63.56;94170.28;5059465;28;20047;-35